Time;durP1;ratioP1;P1;durP2;ratioP2;P2;SDS_P1;SDS_P2;PMS_P1;PMS_P2;Temp;Humidity;BMP_temperature;BMP_pressure;BME280_temperature;BME280_humidity;BME280_pressure;Samples;Min_cycle;Max_cycle;Signal;HPM_P1;HPM_P2
2022/09/16 00:02:00;;;;;;;;;4.50;4.25;;;;;18.78;47.86;100725.53;5070346;27;74336;-50
2022/09/16 00:04:25;;;;;;;;;6.50;3.75;;;;;18.74;48.13;100726.69;5076038;27;73214;-53
2022/09/16 00:06:51;;;;;;;;;4.75;4.25;;;;;18.74;48.29;100725.84;5075126;27;70475;-53
2022/09/16 00:09:16;;;;;;;;;5.50;4.25;;;;;18.72;48.33;100725.94;5058359;28;61057;-51
2022/09/16 00:11:41;;;;;;;;;6.00;4.00;;;;;18.71;48.15;100729.50;5042670;27;51807;-49
2022/09/16 00:14:07;;;;;;;;;6.75;4.00;;;;;18.70;48.24;100729.63;5079348;27;71966;-53
2022/09/16 00:16:32;;;;;;;;;5.75;4.50;;;;;18.69;48.41;100734.06;5081283;27;45225;-53
2022/09/16 00:18:59;;;;;;;;;6.00;5.00;;;;;18.70;48.37;100738.44;5079457;27;45261;-53
2022/09/16 00:21:25;;;;;;;;;6.00;6.00;;;;;18.71;48.57;100744.56;5075329;27;46225;-51
2022/09/16 00:23:51;;;;;;;;;7.25;5.50;;;;;18.69;48.45;100749.13;5050111;28;45281;-51
2022/09/16 00:26:17;;;;;;;;;9.25;6.75;;;;;18.66;48.47;100752.81;5081966;27;45219;-54
2022/09/16 00:28:42;;;;;;;;;7.25;6.50;;;;;18.64;49.05;100748.53;5071554;27;45459;-48
2022/09/16 00:31:08;;;;;;;;;7.00;5.00;;;;;18.63;48.80;100752.13;5080838;27;46640;-53
2022/09/16 00:33:33;;;;;;;;;6.00;5.00;;;;;18.60;48.82;100751.38;5048038;28;45299;-54
2022/09/16 00:36:10;;;;;;;;;9.75;4.25;;;;;18.58;48.82;100745.31;5057219;28;45568;-54
2022/09/16 00:38:36;;;;;;;;;11.00;8.50;;;;;18.57;49.13;100746.28;5055515;28;50982;-53
2022/09/16 00:41:01;;;;;;;;;8.25;5.50;;;;;18.57;49.17;100748.94;5058534;28;45965;-52
2022/09/16 00:43:26;;;;;;;;;8.75;6.50;;;;;18.57;49.13;100746.28;5058222;28;45352;-52
2022/09/16 00:46:01;;;;;;;;;8.00;5.50;;;;;18.57;48.99;100751.59;5053829;28;45388;-52
2022/09/16 00:48:29;;;;;;;;;6.75;4.25;;;;;18.58;49.11;100753.28;5050089;28;45312;-53
2022/09/16 00:50:59;;;;;;;;;7.50;5.25;;;;;18.58;48.92;100753.28;5056639;28;46003;-54
2022/09/16 00:53:32;;;;;;;;;5.25;4.00;;;;;18.56;49.03;100744.56;5041360;28;45679;-52
2022/09/16 00:56:00;;;;;;;;;7.50;5.00;;;;;18.56;48.77;100747.22;5060048;28;46464;-52
2022/09/16 00:58:36;;;;;;;;;8.75;4.50;;;;;18.55;49.30;100755.25;5054952;28;45433;-53
2022/09/16 01:01:04;;;;;;;;;5.00;4.50;;;;;18.49;49.57;100740.56;5058448;28;46320;-53
2022/09/16 01:03:31;;;;;;;;;6.50;5.00;;;;;18.44;49.60;100750.59;5049608;28;45472;-51
2022/09/16 01:05:57;;;;;;;;;5.50;5.50;;;;;18.41;49.88;100748.13;5049999;28;46125;-50
2022/09/16 01:08:23;;;;;;;;;9.00;7.00;;;;;18.37;49.78;100739.50;5055979;28;69399;-54
2022/09/16 01:10:49;;;;;;;;;4.00;4.00;;;;;18.34;49.98;100745.00;5056165;28;46974;-53
2022/09/16 01:13:14;;;;;;;;;9.50;5.75;;;;;18.34;49.97;100738.84;5057751;28;72986;-50
2022/09/16 01:16:06;;;;;;;;;7.25;4.00;;;;;18.33;50.27;100735.34;5054949;28;50109;-54
2022/09/16 01:18:46;;;;;;;;;5.50;4.00;;;;;18.30;50.08;100737.31;5046731;28;45522;-52
2022/09/16 01:21:21;;;;;;;;;6.25;6.25;;;;;18.31;50.10;100741.66;5052240;28;46260;-54
2022/09/16 01:24:03;;;;;;;;;6.25;5.50;;;;;18.28;50.32;100748.00;5046822;28;45387;-54
2022/09/16 01:26:36;;;;;;;;;3.75;3.75;;;;;18.26;50.62;100749.06;5036989;28;45482;-52
2022/09/16 01:29:29;;;;;;;;;8.75;7.50;;;;;18.24;50.97;100750.91;5052334;28;45170;-52
2022/09/16 01:32:01;;;;;;;;;6.00;5.50;;;;;18.22;50.63;100751.03;5057759;28;46648;-52
2022/09/16 01:34:50;;;;;;;;;8.00;6.75;;;;;18.20;50.95;100743.16;5078861;27;45541;-54
2022/09/16 01:37:32;;;;;;;;;8.50;5.75;;;;;18.19;51.09;100741.44;5070804;27;45479;-53
2022/09/16 01:40:08;;;;;;;;;8.00;5.75;;;;;18.18;51.04;100749.47;5055555;28;45441;-52
2022/09/16 01:42:36;;;;;;;;;5.00;5.00;;;;;18.19;51.21;100740.59;5067205;27;46183;-53
2022/09/16 01:45:13;;;;;;;;;6.00;5.00;;;;;18.18;51.66;100742.41;5070376;28;45411;-52
2022/09/16 01:47:56;;;;;;;;;8.00;7.00;;;;;18.18;51.77;100744.19;5062209;28;55185;-54
2022/09/16 01:50:26;;;;;;;;;7.50;6.00;;;;;18.17;51.35;100742.50;5070056;27;52790;-54
2022/09/16 01:52:58;;;;;;;;;8.50;6.00;;;;;18.18;51.62;100744.19;5072213;27;45385;-54
2022/09/16 01:55:38;;;;;;;;;9.00;5.75;;;;;18.20;51.51;100742.28;5073131;27;45297;-53
2022/09/16 01:58:24;;;;;;;;;8.25;7.00;;;;;18.16;51.38;100731.03;5070494;28;47035;-50
2022/09/16 02:00:54;;;;;;;;;8.00;6.50;;;;;18.26;51.58;100741.09;5075940;27;46738;-51
2022/09/16 02:03:27;;;;;;;;;8.50;7.00;;;;;18.22;51.53;100735.13;5050064;27;46356;-52
2022/09/16 02:05:56;;;;;;;;;7.00;5.25;;;;;18.22;51.50;100740.44;5055154;27;47025;-52
2022/09/16 02:08:37;;;;;;;;;9.25;5.25;;;;;18.21;51.57;100738.72;5057835;27;45602;-53
2022/09/16 02:11:04;;;;;;;;;7.00;5.00;;;;;18.24;51.72;100741.19;5056798;28;45462;-52
2022/09/16 02:13:36;;;;;;;;;8.25;7.00;;;;;18.24;51.57;100735.91;5085978;27;45328;-53
2022/09/16 02:16:06;;;;;;;;;5.25;4.75;;;;;18.24;51.90;100732.38;5059085;28;47999;-48
2022/09/16 02:18:40;;;;;;;;;6.00;5.00;;;;;18.24;51.82;100733.25;5073787;27;45727;-53
2022/09/16 02:21:08;;;;;;;;;7.00;5.50;;;;;18.20;51.92;100729.94;5074658;27;45469;-52
2022/09/16 02:23:39;;;;;;;;;6.50;6.00;;;;;18.21;52.01;100736.06;5055620;28;45429;-54
2022/09/16 02:26:08;;;;;;;;;5.00;5.00;;;;;18.18;52.06;100730.94;5059250;28;51466;-54
2022/09/16 02:28:36;;;;;;;;;6.00;5.50;;;;;18.16;51.83;100738.97;5055236;27;45458;-53
2022/09/16 02:31:06;;;;;;;;;9.00;6.50;;;;;18.14;52.48;100730.28;5056964;27;45363;-54
2022/09/16 02:33:45;;;;;;;;;10.50;7.00;;;;;18.09;52.60;100727.03;5074061;28;46353;-52
2022/09/16 02:36:13;;;;;;;;;9.00;7.00;;;;;18.07;52.67;100728.09;5072846;27;45193;-54
2022/09/16 02:38:48;;;;;;;;;9.50;7.25;;;;;18.03;52.47;100720.31;5052203;27;45494;-54
2022/09/16 02:41:14;;;;;;;;;8.25;5.50;;;;;18.00;52.64;100714.34;5072594;27;45308;-53
2022/09/16 02:43:40;;;;;;;;;9.00;7.25;;;;;17.99;52.90;100720.59;5071488;27;46186;-54
2022/09/16 02:46:18;;;;;;;;;7.25;6.50;;;;;17.97;53.37;100723.34;5053018;27;45693;-54
2022/09/16 02:49:15;;;;;;;;;9.50;6.00;;;;;17.97;53.22;100722.47;5078013;27;45363;-51
2022/09/16 02:51:59;;;;;;;;;10.50;7.50;;;;;17.95;53.15;100724.34;5076878;27;45214;-52
2022/09/16 02:54:31;;;;;;;;;9.00;6.25;;;;;17.93;53.42;100715.66;5058604;27;48079;-52
2022/09/16 02:56:57;;;;;;;;;10.75;8.75;;;;;17.90;53.13;100723.75;5051473;28;45495;-51
2022/09/16 02:59:24;;;;;;;;;8.75;6.75;;;;;17.90;53.69;100718.47;5053178;28;65617;-51
2022/09/16 03:01:49;;;;;;;;;6.50;6.50;;;;;17.90;53.17;100711.41;5049744;28;45394;-53
2022/09/16 03:04:17;;;;;;;;;8.25;7.00;;;;;17.90;53.44;100708.75;5073966;27;45402;-53
2022/09/16 03:06:43;;;;;;;;;8.75;6.00;;;;;17.89;53.53;100712.31;5071999;27;45400;-50
2022/09/16 03:09:13;;;;;;;;;5.75;5.75;;;;;17.86;53.32;100706.34;5076951;27;45374;-49
2022/09/16 03:12:10;;;;;;;;;7.75;6.00;;;;;17.81;53.88;100712.75;5066300;27;45571;-51
2022/09/16 03:14:58;;;;;;;;;7.75;7.00;;;;;17.74;53.94;100708.75;5059621;28;47017;-52
2022/09/16 03:17:40;;;;;;;;;7.00;6.25;;;;;17.68;53.47;100711.72;5051346;27;45542;-50
2022/09/16 03:20:32;;;;;;;;;7.50;7.25;;;;;17.65;53.91;100707.47;5058675;27;45498;-53
2022/09/16 03:23:10;;;;;;;;;8.50;7.00;;;;;17.62;54.18;100705.00;5077723;27;45712;-52
2022/09/16 03:26:08;;;;;;;;;7.50;6.25;;;;;17.61;54.04;100705.06;5073835;27;46318;-50
2022/09/16 03:28:58;;;;;;;;;8.75;6.00;;;;;17.61;54.14;100705.06;5081064;27;45905;-50
2022/09/16 03:31:31;;;;;;;;;8.50;5.50;;;;;17.61;54.13;100705.94;5061153;28;45521;-53
2022/09/16 03:34:05;;;;;;;;;9.00;6.00;;;;;17.62;53.88;100709.44;5070018;27;45586;-50
2022/09/16 03:36:35;;;;;;;;;9.75;7.50;;;;;17.62;53.51;100706.81;5063537;27;46101;-53
2022/09/16 03:39:02;;;;;;;;;8.00;7.00;;;;;17.61;54.35;100713.88;5054214;28;45280;-49
2022/09/16 03:41:29;;;;;;;;;10.00;8.00;;;;;17.57;54.08;100712.34;5080371;27;45356;-50
2022/09/16 03:43:56;;;;;;;;;11.75;9.00;;;;;17.54;54.26;100716.97;5053324;28;45522;-52
2022/09/16 03:46:23;;;;;;;;;7.75;7.00;;;;;17.50;54.25;100721.56;5073039;27;45411;-52
2022/09/16 03:48:49;;;;;;;;;10.75;9.25;;;;;17.47;54.66;100721.72;5072307;27;45350;-51
2022/09/16 03:51:14;;;;;;;;;9.50;7.75;;;;;17.44;54.55;100728.06;5076207;27;69470;-50
2022/09/16 03:53:40;;;;;;;;;7.50;7.00;;;;;17.43;55.08;100729.00;5051980;28;45653;-53
2022/09/16 03:56:05;;;;;;;;;7.00;7.00;;;;;17.41;54.31;100728.22;5030033;28;45976;-52
2022/09/16 03:58:30;;;;;;;;;9.00;6.25;;;;;17.41;54.67;100730.88;5060376;28;45601;-51
2022/09/16 04:00:56;;;;;;;;;11.00;7.00;;;;;17.42;54.36;100727.31;5074849;28;59318;-50
2022/09/16 04:03:21;;;;;;;;;4.50;4.25;;;;;17.38;54.79;100731.03;5055554;28;61727;-48
2022/09/16 04:05:52;;;;;;;;;11.25;7.00;;;;;17.32;55.14;100734.03;5074124;27;71812;-53
2022/09/16 04:08:17;;;;;;;;;7.25;6.00;;;;;17.27;55.06;100725.50;5073394;27;45774;-51
2022/09/16 04:10:52;;;;;;;;;10.00;7.75;;;;;17.21;55.33;100734.63;5069370;27;65708;-51
2022/09/16 04:13:18;;;;;;;;;9.50;8.00;;;;;17.20;55.02;100734.72;5078251;27;45304;-51
2022/09/16 04:15:43;;;;;;;;;6.00;6.00;;;;;17.18;54.89;100737.44;5073302;27;71223;-51
2022/09/16 04:18:08;;;;;;;;;11.50;7.00;;;;;17.17;55.45;100735.72;5075343;27;71222;-51
2022/09/16 04:20:33;;;;;;;;;9.50;4.00;;;;;17.14;55.27;100742.97;5059244;28;67465;-51
2022/09/16 04:22:59;;;;;;;;;10.50;8.00;;;;;17.14;55.66;100745.59;5077360;27;56398;-51
2022/09/16 04:25:24;;;;;;;;;8.75;7.00;;;;;17.12;55.11;100742.19;5073035;27;71676;-53
2022/09/16 04:27:49;;;;;;;;;15.00;10.50;;;;;17.09;55.14;100743.22;5070262;27;67379;-51
2022/09/16 04:30:15;;;;;;;;;11.25;8.75;;;;;17.10;55.46;100741.44;5058121;28;45253;-53
2022/09/16 04:32:40;;;;;;;;;10.00;8.75;;;;;17.10;55.20;100744.06;5071288;27;45962;-52
2022/09/16 04:35:06;;;;;;;;;9.25;8.75;;;;;17.11;55.09;100745.78;5076029;27;46345;-51
2022/09/16 04:37:31;;;;;;;;;8.00;7.50;;;;;17.10;55.33;100747.56;5055203;28;45566;-52
2022/09/16 04:39:57;;;;;;;;;10.25;9.25;;;;;17.08;55.27;100739.72;5080100;27;45248;-53
2022/09/16 04:42:22;;;;;;;;;9.00;8.00;;;;;17.08;55.87;100742.34;5061486;27;45220;-51
2022/09/16 04:44:47;;;;;;;;;12.00;11.00;;;;;17.06;55.78;100746.03;5071761;27;75473;-50
2022/09/16 04:47:13;;;;;;;;;8.00;8.00;;;;;17.07;55.37;100751.25;5078165;27;45331;-50
2022/09/16 04:49:38;;;;;;;;;12.50;9.50;;;;;17.07;55.65;100745.94;5074471;27;45640;-51
2022/09/16 04:52:03;;;;;;;;;10.00;9.00;;;;;17.07;55.86;100739.81;5078031;27;62303;-50
2022/09/16 04:54:29;;;;;;;;;10.50;8.00;;;;;17.03;55.79;100744.41;5073981;28;67443;-51
2022/09/16 04:56:54;;;;;;;;;8.00;7.00;;;;;17.02;55.81;100747.13;5076484;27;45534;-52
2022/09/16 04:59:19;;;;;;;;;11.00;9.00;;;;;17.00;55.63;100747.22;5074591;27;61556;-51
2022/09/16 05:01:45;;;;;;;;;8.25;7.50;;;;;16.98;55.77;100743.81;5066295;27;45733;-48
2022/09/16 05:04:10;;;;;;;;;9.25;7.25;;;;;16.99;55.88;100744.66;5068484;27;46255;-49
2022/09/16 05:06:40;;;;;;;;;11.75;9.00;;;;;17.00;55.58;100743.72;5058764;27;61565;-53
2022/09/16 05:09:07;;;;;;;;;11.25;7.50;;;;;16.99;55.92;100748.13;5073695;27;45200;-52
2022/09/16 05:11:35;;;;;;;;;10.25;8.00;;;;;16.97;55.98;100741.25;5077451;27;45343;-51
2022/09/16 05:14:02;;;;;;;;;8.75;7.50;;;;;16.96;56.02;100740.38;5077489;27;46173;-51
2022/09/16 05:16:28;;;;;;;;;10.25;8.25;;;;;16.95;56.22;100748.41;5075651;27;45805;-52
2022/09/16 05:18:56;;;;;;;;;11.00;8.75;;;;;16.94;55.60;100749.31;5073141;28;45405;-52
2022/09/16 05:21:23;;;;;;;;;10.50;8.00;;;;;16.94;55.92;100747.53;5078503;27;45316;-51
2022/09/16 05:23:49;;;;;;;;;8.25;8.25;;;;;16.94;55.72;100750.16;5078203;27;45437;-51
2022/09/16 05:26:22;;;;;;;;;9.25;7.00;;;;;16.95;55.86;100751.06;5068946;27;45288;-50
2022/09/16 05:28:49;;;;;;;;;10.75;7.25;;;;;16.96;55.50;100752.75;5052692;27;45402;-54
2022/09/16 05:31:26;;;;;;;;;9.75;7.25;;;;;16.90;55.69;100746.00;5055379;28;45887;-53
2022/09/16 05:34:02;;;;;;;;;11.50;10.50;;;;;16.98;55.77;100754.38;5060356;28;48791;-53
2022/09/16 05:36:29;;;;;;;;;15.25;10.00;;;;;16.98;55.72;100757.03;5071851;27;45914;-51
2022/09/16 05:38:55;;;;;;;;;8.75;7.50;;;;;17.01;55.64;100759.47;5076142;27;47338;-53
2022/09/16 05:41:20;;;;;;;;;7.50;7.50;;;;;17.01;55.97;100767.41;5075538;27;45590;-53
2022/09/16 05:43:46;;;;;;;;;12.00;10.00;;;;;17.01;55.69;100759.47;5043768;28;47064;-54
2022/09/16 05:46:18;;;;;;;;;9.25;8.25;;;;;17.00;55.70;100767.53;5055829;27;53910;-52
2022/09/16 05:48:43;;;;;;;;;14.00;11.50;;;;;17.01;55.84;100766.56;5049194;28;45356;-51
2022/09/16 05:51:11;;;;;;;;;11.00;10.00;;;;;16.99;55.97;100766.66;5081668;27;45819;-54
2022/09/16 05:53:36;;;;;;;;;10.25;8.50;;;;;16.97;55.92;100772.97;5060250;27;45557;-52
2022/09/16 05:56:12;;;;;;;;;11.00;10.75;;;;;16.96;56.33;100781.81;5054154;28;71148;-54
2022/09/16 05:58:38;;;;;;;;;9.75;8.75;;;;;16.96;55.86;100773.88;5078587;27;45460;-50
2022/09/16 06:01:04;;;;;;;;;11.25;10.00;;;;;16.96;55.91;100768.59;5076986;27;45620;-51
2022/09/16 06:03:30;;;;;;;;;12.25;10.00;;;;;16.97;56.25;100776.44;5076298;27;46452;-50
2022/09/16 06:06:07;;;;;;;;;10.25;8.50;;;;;17.00;56.12;100770.16;5075730;27;45924;-51
2022/09/16 06:08:34;;;;;;;;;15.00;12.00;;;;;17.03;55.87;100777.91;5054136;28;45435;-53
2022/09/16 06:11:00;;;;;;;;;22.50;17.00;;;;;17.04;55.97;100779.63;5074233;27;45303;-52
2022/09/16 06:13:26;;;;;;;;;18.50;16.00;;;;;17.05;56.11;100782.19;5077790;27;45409;-48
2022/09/16 06:15:55;;;;;;;;;10.00;10.00;;;;;17.07;56.11;100788.25;5072979;28;46479;-52
2022/09/16 06:18:21;;;;;;;;;14.00;10.00;;;;;17.07;56.24;100790.91;5077956;27;45407;-51
2022/09/16 06:20:47;;;;;;;;;12.50;10.25;;;;;17.09;55.76;100788.19;5079497;27;45374;-50
2022/09/16 06:23:13;;;;;;;;;9.25;9.00;;;;;17.10;55.97;100796.94;5076504;28;46088;-48
2022/09/16 06:25:38;;;;;;;;;13.50;10.50;;;;;17.10;55.66;100794.31;5069083;27;45572;-54
2022/09/16 06:28:04;;;;;;;;;12.25;10.75;;;;;17.10;55.74;100796.94;5072514;28;45411;-51
2022/09/16 06:30:29;;;;;;;;;16.25;11.50;;;;;17.13;55.85;100792.34;5060397;28;68228;-52
2022/09/16 06:32:55;;;;;;;;;11.50;10.25;;;;;17.17;55.85;100790.41;5076931;27;45473;-51
2022/09/16 06:35:20;;;;;;;;;13.25;11.00;;;;;17.19;55.96;100788.53;5074602;27;45718;-48
2022/09/16 06:37:45;;;;;;;;;11.75;8.75;;;;;17.22;55.85;100788.38;5069176;28;45486;-47
2022/09/16 06:40:11;;;;;;;;;15.50;11.50;;;;;17.24;55.67;100783.84;5051395;28;57828;-52
2022/09/16 06:42:36;;;;;;;;;12.50;8.75;;;;;17.23;55.93;100787.44;5073391;28;69908;-53
2022/09/16 06:45:03;;;;;;;;;8.00;8.00;;;;;17.23;55.82;100774.22;5076019;27;45208;-51
2022/09/16 06:47:31;;;;;;;;;13.25;10.00;;;;;17.20;55.44;100780.50;5052376;28;45380;-51
2022/09/16 06:49:56;;;;;;;;;12.25;10.50;;;;;17.21;55.54;100786.66;5077524;28;46288;-52
2022/09/16 06:52:21;;;;;;;;;13.00;11.00;;;;;17.20;55.65;100790.25;5043767;28;67951;-53
2022/09/16 06:54:47;;;;;;;;;13.00;10.75;;;;;17.22;55.82;100794.50;5065844;28;64488;-51
2022/09/16 06:57:12;;;;;;;;;7.50;7.50;;;;;17.25;55.59;100801.44;5069208;28;45339;-50
2022/09/16 06:59:37;;;;;;;;;11.50;10.25;;;;;17.28;55.63;100798.59;5057994;28;66527;-51
2022/09/16 07:02:03;;;;;;;;;11.25;10.25;;;;;17.30;55.55;100807.34;5068561;27;65267;-53
2022/09/16 07:04:28;;;;;;;;;17.50;12.00;;;;;17.32;55.43;100812.53;5067236;27;63656;-49
2022/09/16 07:06:56;;;;;;;;;12.75;11.50;;;;;17.34;55.91;100813.31;5071740;28;45566;-50
2022/09/16 07:09:22;;;;;;;;;12.25;9.75;;;;;17.36;55.46;100808.78;5078151;28;45611;-51
2022/09/16 07:11:47;;;;;;;;;13.25;10.00;;;;;17.40;55.53;100820.91;5074329;28;46057;-46
2022/09/16 07:14:13;;;;;;;;;24.00;17.50;;;;;17.45;55.40;100825.00;5073341;28;72786;-48
2022/09/16 07:16:38;;;;;;;;;10.75;10.00;;;;;17.49;55.60;100822.19;5076648;28;45495;-49
2022/09/16 07:19:04;;;;;;;;;21.25;16.50;;;;;17.50;55.14;100831.84;5061171;28;63456;-50
2022/09/16 07:21:29;;;;;;;;;12.25;9.75;;;;;17.51;55.17;100831.78;5074006;27;46204;-49
2022/09/16 07:23:57;;;;;;;;;15.00;12.00;;;;;17.51;54.98;100826.47;5050668;27;53972;-53
2022/09/16 07:26:25;;;;;;;;;18.50;11.00;;;;;17.55;55.18;100838.59;5071874;27;45252;-51
2022/09/16 07:28:52;;;;;;;;;15.50;11.00;;;;;17.58;55.45;100835.78;5059862;28;45541;-52
2022/09/16 07:31:25;;;;;;;;;12.00;11.50;;;;;17.59;55.28;100839.28;5057702;28;46136;-53
2022/09/16 07:33:53;;;;;;;;;15.75;12.50;;;;;17.62;55.14;100841.78;5070651;27;45373;-49
2022/09/16 07:36:21;;;;;;;;;11.00;10.00;;;;;17.66;55.49;100835.34;5071431;27;45418;-47
2022/09/16 07:38:47;;;;;;;;;11.50;8.50;;;;;17.72;54.86;100835.00;5074323;28;45357;-50
2022/09/16 07:41:24;;;;;;;;;16.25;10.25;;;;;17.75;54.86;100837.50;5077519;27;46634;-51
2022/09/16 07:43:50;;;;;;;;;14.00;12.00;;;;;17.79;54.97;100833.72;5074218;28;45778;-50
2022/09/16 07:46:17;;;;;;;;;13.50;10.75;;;;;17.83;54.80;100837.94;5079211;28;45489;-49
2022/09/16 07:48:44;;;;;;;;;17.00;16.25;;;;;17.89;54.93;100830.63;5077708;28;45596;-52
2022/09/16 07:51:17;;;;;;;;;18.50;14.00;;;;;17.96;54.49;100845.22;5073005;28;46061;-50
2022/09/16 07:53:43;;;;;;;;;18.00;11.25;;;;;17.98;54.18;100838.88;5066625;28;46024;-53
2022/09/16 07:56:16;;;;;;;;;13.25;11.00;;;;;18.02;54.36;100850.16;5037079;28;45357;-52
2022/09/16 07:58:44;;;;;;;;;13.75;11.25;;;;;18.05;54.17;100850.00;5065854;28;45313;-53
2022/09/16 08:01:10;;;;;;;;;12.50;10.00;;;;;18.06;54.21;100856.13;5063066;28;46463;-53
2022/09/16 08:03:37;;;;;;;;;10.00;8.75;;;;;18.06;53.86;100858.78;5062105;28;45425;-50
2022/09/16 08:06:11;;;;;;;;;13.50;8.75;;;;;18.05;53.85;100857.09;5080653;28;45576;-51
2022/09/16 08:08:37;;;;;;;;;9.25;8.50;;;;;18.06;53.74;100867.59;5080467;28;45366;-48
2022/09/16 08:11:02;;;;;;;;;11.00;8.50;;;;;18.09;53.56;100855.97;5071516;27;45496;-49
2022/09/16 08:13:29;;;;;;;;;10.25;8.75;;;;;18.12;53.26;100861.94;5077974;27;45222;-48
2022/09/16 08:15:59;;;;;;;;;11.00;8.25;;;;;18.17;53.36;100864.34;5079112;27;45473;-49
2022/09/16 08:18:24;;;;;;;;;8.50;7.00;;;;;18.19;53.21;100867.75;5058107;28;45591;-50
2022/09/16 08:20:50;;;;;;;;;9.50;7.00;;;;;18.20;52.22;100866.78;5088786;27;45510;-48
2022/09/16 08:23:15;;;;;;;;;12.50;10.75;;;;;18.16;52.54;100870.56;5073675;28;45262;-50
2022/09/16 08:25:41;;;;;;;;;8.00;6.75;;;;;18.12;52.40;100869.03;5058980;28;45413;-49
2022/09/16 08:28:14;;;;;;;;;10.75;7.75;;;;;18.10;52.59;100876.22;5082876;27;45269;-52
2022/09/16 08:30:40;;;;;;;;;6.00;6.00;;;;;18.07;52.79;100876.38;5074433;27;45376;-50
2022/09/16 08:33:05;;;;;;;;;7.00;7.00;;;;;18.06;52.54;100864.94;5072906;27;45489;-51
2022/09/16 08:35:30;;;;;;;;;8.75;8.25;;;;;18.07;52.69;100879.03;5059593;27;45342;-50
2022/09/16 08:37:56;;;;;;;;;7.25;7.25;;;;;18.05;52.58;100872.97;5079052;27;45570;-48
2022/09/16 08:40:23;;;;;;;;;8.75;7.75;;;;;18.10;52.50;100882.38;5077533;27;46926;-47
2022/09/16 08:43:09;;;;;;;;;10.75;7.75;;;;;18.16;52.53;100891.75;5053380;27;45328;-52
2022/09/16 08:45:49;;;;;;;;;7.25;7.00;;;;;18.19;52.64;100887.13;5072909;28;45198;-48
2022/09/16 08:48:36;;;;;;;;;10.75;6.75;;;;;18.24;52.23;100889.53;5048708;28;45526;-53
2022/09/16 08:51:01;;;;;;;;;10.25;7.50;;;;;18.26;51.22;100890.31;5077989;27;45517;-51
2022/09/16 08:54:08;;;;;;;;;8.50;8.00;;;;;18.26;51.80;100894.75;5082443;27;45369;-47
2022/09/16 08:56:34;;;;;;;;;8.50;6.50;;;;;18.28;51.61;100904.31;4998848;28;45534;-49
2022/09/16 08:59:01;;;;;;;;;9.75;7.50;;;;;18.34;51.59;100903.97;5000922;28;45672;-48
2022/09/16 09:01:48;;;;;;;;;5.00;4.00;;;;;18.37;49.95;100901.13;5016440;28;46541;-49
2022/09/16 09:04:14;;;;;;;;;6.75;4.50;;;;;18.39;48.74;100904.53;5076227;27;45601;-50
2022/09/16 09:07:05;;;;;;;;;5.75;4.00;;;;;18.39;49.25;100898.41;5049951;28;45435;-48
2022/09/16 09:09:49;;;;;;;;;6.00;4.00;;;;;18.42;49.32;100892.94;5043291;28;45458;-52
2022/09/16 09:12:31;;;;;;;;;3.00;3.00;;;;;18.47;48.86;100911.19;5074795;28;46010;-49
2022/09/16 09:15:00;;;;;;;;;7.50;2.00;;;;;18.50;48.64;100917.22;5062672;28;45708;-49
2022/09/16 09:17:46;;;;;;;;;4.50;3.00;;;;;18.54;47.89;100910.78;5068105;28;45479;-51
2022/09/16 09:20:15;;;;;;;;;2.50;2.50;;;;;18.57;48.04;100907.09;5065162;28;45636;-50
2022/09/16 09:22:53;;;;;;;;;6.50;3.00;;;;;18.61;47.83;100913.94;5079138;28;46205;-50
2022/09/16 09:25:21;;;;;;;;;4.25;3.75;;;;;18.67;48.06;100910.06;5080507;28;45389;-47
2022/09/16 09:28:07;;;;;;;;;6.00;3.00;;;;;18.74;46.68;100917.56;5080736;28;45313;-49
2022/09/16 09:30:34;;;;;;;;;4.25;2.00;;;;;18.82;47.21;100921.59;5069303;28;45329;-47
2022/09/16 09:33:32;;;;;;;;;6.25;3.75;;;;;18.88;47.43;100918.59;5050045;28;45684;-48
2022/09/16 09:36:25;;;;;;;;;3.50;3.25;;;;;18.96;46.79;100927.81;5035077;28;45322;-50
2022/09/16 09:39:08;;;;;;;;;2.75;2.00;;;;;19.05;45.56;100929.06;5070676;28;45502;-49
2022/09/16 09:41:54;;;;;;;;;2.00;2.00;;;;;19.09;45.48;100917.31;5079575;28;45393;-53
2022/09/16 09:44:22;;;;;;;;;2.25;2.00;;;;;19.16;44.20;100926.63;5076283;27;46407;-51
2022/09/16 09:46:53;;;;;;;;;4.00;1.50;;;;;19.22;44.56;100925.38;5079439;28;45708;-50
2022/09/16 09:49:28;;;;;;;;;2.25;2.25;;;;;19.30;44.37;100920.47;5074025;28;45562;-50
2022/09/16 09:51:59;;;;;;;;;1.25;1.25;;;;;19.40;44.22;100928.72;5088302;27;45492;-49
2022/09/16 09:54:25;;;;;;;;;3.75;3.75;;;;;19.50;44.98;100923.72;5055305;28;46770;-49
2022/09/16 09:56:54;;;;;;;;;4.50;4.50;;;;;19.59;44.55;100919.66;5073005;28;45375;-52
2022/09/16 09:59:29;;;;;;;;;3.00;3.00;;;;;19.68;43.96;100922.56;5045086;27;45412;-51
2022/09/16 10:01:55;;;;;;;;;1.00;1.00;;;;;19.73;40.85;100927.59;5051110;28;45629;-53
2022/09/16 10:04:20;;;;;;;;;3.00;2.00;;;;;19.75;42.57;100925.72;5055324;28;46884;-48
2022/09/16 10:06:46;;;;;;;;;3.50;3.00;;;;;19.76;41.37;100932.75;5075381;28;70365;-48
2022/09/16 10:09:14;;;;;;;;;1.75;1.75;;;;;19.72;38.10;100931.19;5071945;27;67182;-51
2022/09/16 10:11:48;;;;;;;;;1.00;1.00;;;;;19.72;40.51;100928.53;5077379;28;47316;-52
2022/09/16 10:14:30;;;;;;;;;3.00;1.00;;;;;19.76;40.82;100931.88;5074582;28;46059;-50
2022/09/16 10:16:57;;;;;;;;;1.50;1.50;;;;;19.78;40.43;100928.19;5050494;28;45390;-50
2022/09/16 10:19:26;;;;;;;;;1.50;1.50;;;;;19.82;40.80;100919.09;5050471;28;45529;-50
2022/09/16 10:21:54;;;;;;;;;1.75;1.00;;;;;19.88;40.42;100924.03;5055159;28;45278;-47
2022/09/16 10:24:30;;;;;;;;;4.00;1.00;;;;;19.93;39.97;100923.72;5064523;27;45352;-51
2022/09/16 10:26:56;;;;;;;;;2.75;1.00;;;;;19.96;39.39;100928.84;5074276;28;45237;-51
2022/09/16 10:29:22;;;;;;;;;2.00;1.00;;;;;19.99;39.21;100923.34;5074688;28;45402;-48
2022/09/16 10:31:47;;;;;;;;;3.00;1.00;;;;;20.06;39.34;100919.34;5073101;28;69060;-51
2022/09/16 10:34:25;;;;;;;;;1.00;1.00;;;;;20.16;38.88;100922.25;5051317;27;45277;-49
2022/09/16 10:37:03;;;;;;;;;3.00;1.25;;;;;20.22;38.77;100923.66;5079024;27;45105;-52
2022/09/16 10:39:29;;;;;;;;;4.25;0.75;;;;;20.23;35.71;100936.00;5042175;27;45479;-50
2022/09/16 10:41:54;;;;;;;;;1.50;1.25;;;;;20.22;38.12;100923.66;5057694;27;45442;-50
2022/09/16 10:44:31;;;;;;;;;0.75;0.00;;;;;20.23;39.04;100930.69;5071341;28;46127;-48
2022/09/16 10:47:04;;;;;;;;;2.75;2.00;;;;;20.23;38.80;100925.38;5065143;28;45446;-51
2022/09/16 10:49:56;;;;;;;;;2.00;1.00;;;;;20.24;39.22;100925.28;5051382;28;45374;-53
2022/09/16 10:52:25;;;;;;;;;3.75;1.50;;;;;20.28;39.48;100921.47;5070304;27;45228;-49
2022/09/16 10:54:52;;;;;;;;;5.25;3.00;;;;;20.33;38.82;100926.47;5073686;28;47092;-51
2022/09/16 10:57:31;;;;;;;;;5.00;4.00;;;;;20.32;37.24;100937.22;5074237;28;45371;-51
2022/09/16 11:00:12;;;;;;;;;4.00;2.00;;;;;20.30;38.47;100927.53;5077529;27;45150;-48
2022/09/16 11:02:59;;;;;;;;;6.00;3.75;;;;;20.32;38.02;100924.75;5074009;28;45454;-48
2022/09/16 11:06:04;;;;;;;;;1.00;1.00;;;;;20.31;37.00;100931.06;5074567;27;46252;-53
2022/09/16 11:08:45;;;;;;;;;2.00;2.00;;;;;20.27;37.55;100933.06;5037716;28;45518;-50
2022/09/16 11:11:13;;;;;;;;;3.00;3.00;;;;;20.26;38.78;100928.69;5077411;27;45465;-49
2022/09/16 11:13:54;;;;;;;;;2.75;2.50;;;;;20.25;38.00;100928.78;5074637;28;45654;-51
2022/09/16 11:16:50;;;;;;;;;3.25;2.50;;;;;20.23;37.40;100933.34;5068602;27;46323;-52
2022/09/16 11:19:19;;;;;;;;;4.75;3.25;;;;;20.18;38.55;100938.94;5063421;27;45785;-48
2022/09/16 11:22:02;;;;;;;;;2.00;1.75;;;;;20.15;37.78;100936.50;5070621;28;45428;-49
2022/09/16 11:24:51;;;;;;;;;6.25;3.25;;;;;20.13;38.42;100940.19;5070206;28;45387;-48
2022/09/16 11:27:47;;;;;;;;;4.75;4.25;;;;;20.11;37.81;100934.97;5041160;28;46374;-51
2022/09/16 11:30:16;;;;;;;;;3.00;3.00;;;;;20.08;37.02;100935.19;5043040;28;45374;-52
2022/09/16 11:33:04;;;;;;;;;4.00;3.00;;;;;20.09;38.19;100940.38;5059004;28;45403;-50
2022/09/16 11:36:07;;;;;;;;;1.50;1.50;;;;;20.14;38.27;100933.94;5067224;27;45483;-47
2022/09/16 11:38:51;;;;;;;;;3.50;2.00;;;;;20.19;37.04;100940.66;5070065;27;47178;-47
2022/09/16 11:41:36;;;;;;;;;4.50;2.00;;;;;20.21;37.34;100943.22;5061583;28;45316;-49